sensor_id;sensor_type;location;lat;lon;timestamp;P1;durP1;ratioP1;P2;durP2;ratioP2
46363;SDS011;32071;49.036;9.344;2023-09-19T00:01:32;1.43;;;1.33;;
46363;SDS011;32071;49.036;9.344;2023-09-19T00:03:58;2.00;;;1.30;;
46363;SDS011;32071;49.036;9.344;2023-09-19T00:06:24;1.37;;;1.30;;
46363;SDS011;32071;49.036;9.344;2023-09-19T00:08:51;4.10;;;1.37;;
46363;SDS011;32071;49.036;9.344;2023-09-19T00:11:17;2.20;;;1.47;;
46363;SDS011;32071;49.036;9.344;2023-09-19T00:13:43;1.70;;;1.40;;
46363;SDS011;32071;49.036;9.344;2023-09-19T00:16:09;6.27;;;1.67;;
46363;SDS011;32071;49.036;9.344;2023-09-19T00:18:36;2.10;;;1.57;;
46363;SDS011;32071;49.036;9.344;2023-09-19T00:21:03;2.90;;;1.60;;
46363;SDS011;32071;49.036;9.344;2023-09-19T00:23:30;2.37;;;1.37;;
46363;SDS011;32071;49.036;9.344;2023-09-19T00:25:59;1.60;;;1.50;;
46363;SDS011;32071;49.036;9.344;2023-09-19T00:28:26;2.00;;;1.27;;
46363;SDS011;32071;49.036;9.344;2023-09-19T00:30:52;1.57;;;1.37;;
46363;SDS011;32071;49.036;9.344;2023-09-19T00:33:20;3.87;;;1.83;;
46363;SDS011;32071;49.036;9.344;2023-09-19T00:35:52;3.50;;;1.40;;
46363;SDS011;32071;49.036;9.344;2023-09-19T00:38:20;2.90;;;1.80;;
46363;SDS011;32071;49.036;9.344;2023-09-19T00:40:47;0.97;;;0.97;;
46363;SDS011;32071;49.036;9.344;2023-09-19T00:43:14;1.40;;;1.30;;
46363;SDS011;32071;49.036;9.344;2023-09-19T00:45:42;3.13;;;1.60;;
46363;SDS011;32071;49.036;9.344;2023-09-19T00:48:10;5.63;;;1.80;;
46363;SDS011;32071;49.036;9.344;2023-09-19T00:50:36;1.67;;;1.50;;
46363;SDS011;32071;49.036;9.344;2023-09-19T00:53:06;1.50;;;1.30;;
46363;SDS011;32071;49.036;9.344;2023-09-19T00:55:33;2.10;;;1.57;;
46363;SDS011;32071;49.036;9.344;2023-09-19T00:57:59;1.50;;;1.40;;
46363;SDS011;32071;49.036;9.344;2023-09-19T01:00:26;4.03;;;1.90;;
46363;SDS011;32071;49.036;9.344;2023-09-19T01:02:52;1.57;;;1.47;;
46363;SDS011;32071;49.036;9.344;2023-09-19T01:05:18;3.50;;;1.70;;
46363;SDS011;32071;49.036;9.344;2023-09-19T01:07:44;2.47;;;1.53;;
46363;SDS011;32071;49.036;9.344;2023-09-19T01:10:14;2.67;;;1.33;;
46363;SDS011;32071;49.036;9.344;2023-09-19T01:15:18;2.33;;;1.33;;
46363;SDS011;32071;49.036;9.344;2023-09-19T01:31:54;2.00;;;1.47;;
46363;SDS011;32071;49.036;9.344;2023-09-19T01:34:26;3.17;;;1.87;;
46363;SDS011;32071;49.036;9.344;2023-09-19T01:36:51;2.07;;;1.67;;
46363;SDS011;32071;49.036;9.344;2023-09-19T01:39:17;1.97;;;1.77;;
46363;SDS011;32071;49.036;9.344;2023-09-19T01:44:22;3.97;;;1.87;;
46363;SDS011;32071;49.036;9.344;2023-09-19T01:47:13;2.10;;;1.83;;
46363;SDS011;32071;49.036;9.344;2023-09-19T01:50:13;3.57;;;1.60;;
46363;SDS011;32071;49.036;9.344;2023-09-19T01:52:47;2.60;;;2.00;;
46363;SDS011;32071;49.036;9.344;2023-09-19T01:55:19;2.07;;;1.87;;
46363;SDS011;32071;49.036;9.344;2023-09-19T01:57:57;1.60;;;1.50;;
46363;SDS011;32071;49.036;9.344;2023-09-19T02:00:32;2.27;;;1.47;;
46363;SDS011;32071;49.036;9.344;2023-09-19T02:03:00;1.33;;;1.23;;
46363;SDS011;32071;49.036;9.344;2023-09-19T02:05:27;1.50;;;1.40;;
46363;SDS011;32071;49.036;9.344;2023-09-19T02:07:53;2.20;;;2.00;;
46363;SDS011;32071;49.036;9.344;2023-09-19T02:10:19;7.90;;;1.90;;
46363;SDS011;32071;49.036;9.344;2023-09-19T02:12:45;1.70;;;1.60;;
46363;SDS011;32071;49.036;9.344;2023-09-19T02:15:11;3.00;;;1.60;;
46363;SDS011;32071;49.036;9.344;2023-09-19T02:17:37;2.80;;;1.50;;
46363;SDS011;32071;49.036;9.344;2023-09-19T02:20:03;3.70;;;1.40;;
46363;SDS011;32071;49.036;9.344;2023-09-19T02:22:35;3.67;;;1.90;;
46363;SDS011;32071;49.036;9.344;2023-09-19T02:25:02;2.63;;;1.80;;
46363;SDS011;32071;49.036;9.344;2023-09-19T02:27:30;2.03;;;1.70;;
46363;SDS011;32071;49.036;9.344;2023-09-19T02:29:56;1.73;;;1.50;;
46363;SDS011;32071;49.036;9.344;2023-09-19T02:32:21;4.80;;;1.80;;
46363;SDS011;32071;49.036;9.344;2023-09-19T02:34:48;2.20;;;1.60;;
46363;SDS011;32071;49.036;9.344;2023-09-19T02:37:13;1.70;;;1.60;;
46363;SDS011;32071;49.036;9.344;2023-09-19T02:39:41;1.63;;;1.53;;
46363;SDS011;32071;49.036;9.344;2023-09-19T02:42:06;2.80;;;1.60;;
46363;SDS011;32071;49.036;9.344;2023-09-19T02:44:32;3.17;;;1.90;;
46363;SDS011;32071;49.036;9.344;2023-09-19T02:46:58;3.10;;;1.50;;
46363;SDS011;32071;49.036;9.344;2023-09-19T02:49:24;1.73;;;1.63;;
46363;SDS011;32071;49.036;9.344;2023-09-19T02:51:50;2.00;;;1.50;;
46363;SDS011;32071;49.036;9.344;2023-09-19T02:54:16;2.43;;;1.63;;
46363;SDS011;32071;49.036;9.344;2023-09-19T02:56:42;2.10;;;1.90;;
46363;SDS011;32071;49.036;9.344;2023-09-19T02:59:08;2.30;;;1.63;;
46363;SDS011;32071;49.036;9.344;2023-09-19T03:01:35;1.57;;;1.47;;
46363;SDS011;32071;49.036;9.344;2023-09-19T03:04:02;2.13;;;1.60;;
46363;SDS011;32071;49.036;9.344;2023-09-19T03:06:28;1.43;;;1.33;;
46363;SDS011;32071;49.036;9.344;2023-09-19T03:08:56;4.07;;;1.70;;
46363;SDS011;32071;49.036;9.344;2023-09-19T03:11:21;1.63;;;1.53;;
46363;SDS011;32071;49.036;9.344;2023-09-19T03:13:54;1.90;;;1.70;;
46363;SDS011;32071;49.036;9.344;2023-09-19T03:16:20;1.77;;;1.60;;
46363;SDS011;32071;49.036;9.344;2023-09-19T03:18:46;3.83;;;1.90;;
46363;SDS011;32071;49.036;9.344;2023-09-19T03:21:14;2.07;;;1.97;;
46363;SDS011;32071;49.036;9.344;2023-09-19T03:23:40;1.73;;;1.43;;
46363;SDS011;32071;49.036;9.344;2023-09-19T03:26:06;2.80;;;1.50;;
46363;SDS011;32071;49.036;9.344;2023-09-19T03:28:33;2.60;;;2.10;;
46363;SDS011;32071;49.036;9.344;2023-09-19T03:31:00;1.57;;;1.47;;
46363;SDS011;32071;49.036;9.344;2023-09-19T03:33:26;2.13;;;1.93;;
46363;SDS011;32071;49.036;9.344;2023-09-19T03:35:52;2.20;;;1.60;;
46363;SDS011;32071;49.036;9.344;2023-09-19T03:38:18;1.80;;;1.70;;
46363;SDS011;32071;49.036;9.344;2023-09-19T03:40:44;2.30;;;2.10;;
46363;SDS011;32071;49.036;9.344;2023-09-19T03:43:10;3.50;;;1.73;;
46363;SDS011;32071;49.036;9.344;2023-09-19T03:45:35;2.70;;;1.80;;
46363;SDS011;32071;49.036;9.344;2023-09-19T03:48:01;2.40;;;1.70;;
46363;SDS011;32071;49.036;9.344;2023-09-19T03:50:36;2.60;;;1.80;;
46363;SDS011;32071;49.036;9.344;2023-09-19T03:53:02;1.53;;;1.43;;
46363;SDS011;32071;49.036;9.344;2023-09-19T03:55:28;4.40;;;2.70;;
46363;SDS011;32071;49.036;9.344;2023-09-19T03:57:55;3.50;;;2.40;;
46363;SDS011;32071;49.036;9.344;2023-09-19T04:00:21;4.60;;;2.23;;
46363;SDS011;32071;49.036;9.344;2023-09-19T04:02:49;6.00;;;2.17;;
46363;SDS011;32071;49.036;9.344;2023-09-19T04:05:17;2.80;;;1.90;;
46363;SDS011;32071;49.036;9.344;2023-09-19T04:07:43;1.93;;;1.70;;
46363;SDS011;32071;49.036;9.344;2023-09-19T04:10:08;2.30;;;1.67;;
46363;SDS011;32071;49.036;9.344;2023-09-19T04:12:36;1.93;;;1.80;;
46363;SDS011;32071;49.036;9.344;2023-09-19T04:15:02;2.20;;;1.70;;
46363;SDS011;32071;49.036;9.344;2023-09-19T04:17:28;1.70;;;1.60;;
46363;SDS011;32071;49.036;9.344;2023-09-19T04:19:53;2.90;;;1.60;;
46363;SDS011;32071;49.036;9.344;2023-09-19T04:22:19;1.87;;;1.77;;
46363;SDS011;32071;49.036;9.344;2023-09-19T04:24:45;4.30;;;2.07;;
46363;SDS011;32071;49.036;9.344;2023-09-19T04:27:10;2.07;;;1.90;;
46363;SDS011;32071;49.036;9.344;2023-09-19T04:29:39;3.07;;;2.10;;
46363;SDS011;32071;49.036;9.344;2023-09-19T04:32:06;1.97;;;1.83;;
46363;SDS011;32071;49.036;9.344;2023-09-19T04:34:32;3.70;;;2.20;;
46363;SDS011;32071;49.036;9.344;2023-09-19T04:36:59;2.43;;;2.13;;
46363;SDS011;32071;49.036;9.344;2023-09-19T04:39:25;2.50;;;2.20;;
46363;SDS011;32071;49.036;9.344;2023-09-19T04:41:52;2.53;;;2.33;;
46363;SDS011;32071;49.036;9.344;2023-09-19T04:44:18;3.63;;;2.60;;
46363;SDS011;32071;49.036;9.344;2023-09-19T04:46:44;2.90;;;2.40;;
46363;SDS011;32071;49.036;9.344;2023-09-19T04:49:11;3.20;;;2.63;;
46363;SDS011;32071;49.036;9.344;2023-09-19T04:51:37;3.10;;;2.47;;
46363;SDS011;32071;49.036;9.344;2023-09-19T04:54:03;5.60;;;2.67;;
46363;SDS011;32071;49.036;9.344;2023-09-19T04:56:29;6.10;;;2.63;;
46363;SDS011;32071;49.036;9.344;2023-09-19T04:58:54;4.37;;;3.13;;
46363;SDS011;32071;49.036;9.344;2023-09-19T05:01:20;3.17;;;2.40;;
46363;SDS011;32071;49.036;9.344;2023-09-19T05:03:47;3.30;;;1.97;;
46363;SDS011;32071;49.036;9.344;2023-09-19T05:06:17;5.50;;;2.27;;
46363;SDS011;32071;49.036;9.344;2023-09-19T05:08:43;3.17;;;2.43;;
46363;SDS011;32071;49.036;9.344;2023-09-19T05:11:08;2.53;;;2.33;;
46363;SDS011;32071;49.036;9.344;2023-09-19T05:13:34;3.70;;;2.20;;
46363;SDS011;32071;49.036;9.344;2023-09-19T05:16:00;2.50;;;2.40;;
46363;SDS011;32071;49.036;9.344;2023-09-19T05:18:28;3.30;;;3.00;;
46363;SDS011;32071;49.036;9.344;2023-09-19T05:20:54;5.10;;;2.77;;
46363;SDS011;32071;49.036;9.344;2023-09-19T05:23:19;3.60;;;2.70;;
46363;SDS011;32071;49.036;9.344;2023-09-19T05:25:46;3.00;;;2.70;;
46363;SDS011;32071;49.036;9.344;2023-09-19T05:28:11;3.13;;;2.83;;
46363;SDS011;32071;49.036;9.344;2023-09-19T05:30:39;3.70;;;3.03;;
46363;SDS011;32071;49.036;9.344;2023-09-19T05:33:08;3.60;;;2.93;;
46363;SDS011;32071;49.036;9.344;2023-09-19T05:35:34;4.90;;;2.80;;
46363;SDS011;32071;49.036;9.344;2023-09-19T05:38:04;2.80;;;2.60;;
46363;SDS011;32071;49.036;9.344;2023-09-19T05:40:33;3.10;;;2.80;;
46363;SDS011;32071;49.036;9.344;2023-09-19T05:43:00;4.57;;;3.10;;
46363;SDS011;32071;49.036;9.344;2023-09-19T05:45:26;2.60;;;2.40;;
46363;SDS011;32071;49.036;9.344;2023-09-19T05:47:52;2.90;;;2.63;;
46363;SDS011;32071;49.036;9.344;2023-09-19T05:50:29;3.07;;;2.80;;
46363;SDS011;32071;49.036;9.344;2023-09-19T05:52:54;2.83;;;2.63;;
46363;SDS011;32071;49.036;9.344;2023-09-19T05:55:21;3.87;;;2.90;;
46363;SDS011;32071;49.036;9.344;2023-09-19T05:57:50;3.90;;;3.37;;
46363;SDS011;32071;49.036;9.344;2023-09-19T06:00:17;3.23;;;2.90;;
46363;SDS011;32071;49.036;9.344;2023-09-19T06:02:58;3.60;;;3.10;;
46363;SDS011;32071;49.036;9.344;2023-09-19T06:05:25;5.20;;;3.30;;
46363;SDS011;32071;49.036;9.344;2023-09-19T06:07:52;3.33;;;3.03;;
46363;SDS011;32071;49.036;9.344;2023-09-19T06:10:18;7.60;;;2.70;;
46363;SDS011;32071;49.036;9.344;2023-09-19T06:12:45;5.80;;;3.50;;
46363;SDS011;32071;49.036;9.344;2023-09-19T06:15:14;4.40;;;3.50;;
46363;SDS011;32071;49.036;9.344;2023-09-19T06:17:47;4.77;;;3.17;;
46363;SDS011;32071;49.036;9.344;2023-09-19T06:20:14;4.53;;;3.10;;
46363;SDS011;32071;49.036;9.344;2023-09-19T06:22:43;3.90;;;3.60;;
46363;SDS011;32071;49.036;9.344;2023-09-19T06:25:10;6.23;;;3.43;;
46363;SDS011;32071;49.036;9.344;2023-09-19T06:27:38;3.70;;;2.90;;
46363;SDS011;32071;49.036;9.344;2023-09-19T06:30:07;6.37;;;3.10;;
46363;SDS011;32071;49.036;9.344;2023-09-19T06:32:33;3.33;;;3.00;;
46363;SDS011;32071;49.036;9.344;2023-09-19T06:34:59;3.67;;;3.27;;
46363;SDS011;32071;49.036;9.344;2023-09-19T06:37:28;2.90;;;2.60;;
46363;SDS011;32071;49.036;9.344;2023-09-19T06:39:54;5.47;;;3.33;;
46363;SDS011;32071;49.036;9.344;2023-09-19T06:42:21;10.23;;;2.80;;
46363;SDS011;32071;49.036;9.344;2023-09-19T06:44:48;3.17;;;2.87;;
46363;SDS011;32071;49.036;9.344;2023-09-19T06:47:14;7.97;;;2.90;;
46363;SDS011;32071;49.036;9.344;2023-09-19T06:49:41;3.07;;;2.87;;
46363;SDS011;32071;49.036;9.344;2023-09-19T06:52:08;3.13;;;2.70;;
46363;SDS011;32071;49.036;9.344;2023-09-19T06:54:34;3.33;;;3.00;;
46363;SDS011;32071;49.036;9.344;2023-09-19T06:57:01;3.63;;;2.83;;
46363;SDS011;32071;49.036;9.344;2023-09-19T06:59:26;3.10;;;2.90;;
46363;SDS011;32071;49.036;9.344;2023-09-19T07:01:52;2.83;;;2.40;;
46363;SDS011;32071;49.036;9.344;2023-09-19T07:04:17;4.50;;;3.30;;
46363;SDS011;32071;49.036;9.344;2023-09-19T07:06:49;5.07;;;2.20;;
46363;SDS011;32071;49.036;9.344;2023-09-19T07:09:16;5.60;;;3.07;;
46363;SDS011;32071;49.036;9.344;2023-09-19T07:11:41;4.47;;;2.57;;
46363;SDS011;32071;49.036;9.344;2023-09-19T07:14:07;4.43;;;2.60;;
46363;SDS011;32071;49.036;9.344;2023-09-19T07:16:36;4.33;;;2.80;;
46363;SDS011;32071;49.036;9.344;2023-09-19T07:19:03;3.70;;;2.70;;
46363;SDS011;32071;49.036;9.344;2023-09-19T07:21:29;4.63;;;2.77;;
46363;SDS011;32071;49.036;9.344;2023-09-19T07:23:55;3.47;;;2.50;;
46363;SDS011;32071;49.036;9.344;2023-09-19T07:26:20;3.00;;;2.00;;
46363;SDS011;32071;49.036;9.344;2023-09-19T07:28:46;3.20;;;2.30;;
46363;SDS011;32071;49.036;9.344;2023-09-19T07:31:11;2.77;;;2.30;;
46363;SDS011;32071;49.036;9.344;2023-09-19T07:33:39;3.97;;;1.90;;
46363;SDS011;32071;49.036;9.344;2023-09-19T07:36:05;4.47;;;2.43;;
46363;SDS011;32071;49.036;9.344;2023-09-19T07:38:31;2.20;;;1.97;;
46363;SDS011;32071;49.036;9.344;2023-09-19T07:41:00;3.87;;;2.10;;
46363;SDS011;32071;49.036;9.344;2023-09-19T07:43:27;3.23;;;2.13;;
46363;SDS011;32071;49.036;9.344;2023-09-19T07:45:53;4.00;;;2.10;;
46363;SDS011;32071;49.036;9.344;2023-09-19T07:48:18;10.30;;;2.07;;
46363;SDS011;32071;49.036;9.344;2023-09-19T07:50:44;2.67;;;1.80;;
46363;SDS011;32071;49.036;9.344;2023-09-19T07:53:09;2.70;;;2.17;;
46363;SDS011;32071;49.036;9.344;2023-09-19T07:55:38;2.27;;;1.90;;
46363;SDS011;32071;49.036;9.344;2023-09-19T07:58:06;2.47;;;1.83;;
46363;SDS011;32071;49.036;9.344;2023-09-19T08:00:32;2.17;;;1.80;;
46363;SDS011;32071;49.036;9.344;2023-09-19T08:02:59;2.50;;;1.77;;
46363;SDS011;32071;49.036;9.344;2023-09-19T08:05:26;1.60;;;1.50;;
46363;SDS011;32071;49.036;9.344;2023-09-19T08:07:51;2.80;;;1.60;;
46363;SDS011;32071;49.036;9.344;2023-09-19T08:10:18;1.60;;;1.17;;
46363;SDS011;32071;49.036;9.344;2023-09-19T08:12:45;2.27;;;1.33;;
46363;SDS011;32071;49.036;9.344;2023-09-19T08:15:15;3.00;;;1.50;;
46363;SDS011;32071;49.036;9.344;2023-09-19T08:17:41;2.37;;;1.40;;
46363;SDS011;32071;49.036;9.344;2023-09-19T08:20:08;1.50;;;1.40;;
46363;SDS011;32071;49.036;9.344;2023-09-19T08:22:41;2.43;;;1.47;;
46363;SDS011;32071;49.036;9.344;2023-09-19T08:25:22;3.63;;;1.47;;
46363;SDS011;32071;49.036;9.344;2023-09-19T08:27:50;1.50;;;1.40;;
46363;SDS011;32071;49.036;9.344;2023-09-19T08:30:16;2.80;;;1.50;;
46363;SDS011;32071;49.036;9.344;2023-09-19T08:32:43;1.70;;;1.60;;
46363;SDS011;32071;49.036;9.344;2023-09-19T08:35:12;3.03;;;1.87;;
46363;SDS011;32071;49.036;9.344;2023-09-19T08:37:39;4.50;;;1.90;;
46363;SDS011;32071;49.036;9.344;2023-09-19T08:40:04;2.10;;;1.90;;
46363;SDS011;32071;49.036;9.344;2023-09-19T08:42:47;2.53;;;1.83;;
46363;SDS011;32071;49.036;9.344;2023-09-19T08:45:15;4.07;;;2.10;;
46363;SDS011;32071;49.036;9.344;2023-09-19T08:48:03;2.37;;;1.60;;
46363;SDS011;32071;49.036;9.344;2023-09-19T08:50:39;5.10;;;2.10;;
46363;SDS011;32071;49.036;9.344;2023-09-19T08:53:20;2.00;;;1.37;;
46363;SDS011;32071;49.036;9.344;2023-09-19T08:55:59;2.70;;;1.80;;
46363;SDS011;32071;49.036;9.344;2023-09-19T08:58:27;2.07;;;1.33;;
46363;SDS011;32071;49.036;9.344;2023-09-19T09:01:00;3.53;;;1.73;;
46363;SDS011;32071;49.036;9.344;2023-09-19T09:03:30;1.63;;;1.50;;
46363;SDS011;32071;49.036;9.344;2023-09-19T09:05:58;2.83;;;1.63;;
46363;SDS011;32071;49.036;9.344;2023-09-19T09:08:24;3.57;;;1.60;;
46363;SDS011;32071;49.036;9.344;2023-09-19T09:10:51;3.07;;;1.70;;
46363;SDS011;32071;49.036;9.344;2023-09-19T09:13:17;1.70;;;1.60;;
46363;SDS011;32071;49.036;9.344;2023-09-19T09:15:43;2.50;;;1.60;;
46363;SDS011;32071;49.036;9.344;2023-09-19T09:18:10;2.70;;;1.80;;
46363;SDS011;32071;49.036;9.344;2023-09-19T09:20:35;3.90;;;1.70;;
46363;SDS011;32071;49.036;9.344;2023-09-19T09:23:01;1.50;;;1.40;;
46363;SDS011;32071;49.036;9.344;2023-09-19T09:28:12;1.63;;;1.50;;
46363;SDS011;32071;49.036;9.344;2023-09-19T09:30:45;4.50;;;1.90;;
46363;SDS011;32071;49.036;9.344;2023-09-19T09:33:11;2.27;;;1.67;;
46363;SDS011;32071;49.036;9.344;2023-09-19T09:35:52;3.27;;;1.90;;
46363;SDS011;32071;49.036;9.344;2023-09-19T09:38:22;2.40;;;1.60;;
46363;SDS011;32071;49.036;9.344;2023-09-19T09:40:59;4.00;;;1.73;;
46363;SDS011;32071;49.036;9.344;2023-09-19T09:49:04;1.93;;;1.63;;
46363;SDS011;32071;49.036;9.344;2023-09-19T09:52:04;1.53;;;1.43;;
46363;SDS011;32071;49.036;9.344;2023-09-19T09:54:32;1.60;;;1.33;;
46363;SDS011;32071;49.036;9.344;2023-09-19T09:57:07;3.03;;;1.90;;
46363;SDS011;32071;49.036;9.344;2023-09-19T10:02:30;3.60;;;2.30;;
46363;SDS011;32071;49.036;9.344;2023-09-19T10:07:40;4.77;;;2.10;;
46363;SDS011;32071;49.036;9.344;2023-09-19T10:10:12;2.50;;;1.90;;
46363;SDS011;32071;49.036;9.344;2023-09-19T10:12:45;1.83;;;1.50;;
46363;SDS011;32071;49.036;9.344;2023-09-19T10:15:15;1.93;;;1.70;;
46363;SDS011;32071;49.036;9.344;2023-09-19T10:17:45;2.70;;;1.80;;
46363;SDS011;32071;49.036;9.344;2023-09-19T10:20:16;3.63;;;1.40;;
46363;SDS011;32071;49.036;9.344;2023-09-19T10:22:52;6.37;;;2.23;;
46363;SDS011;32071;49.036;9.344;2023-09-19T10:25:25;3.53;;;1.63;;
46363;SDS011;32071;49.036;9.344;2023-09-19T10:27:54;2.40;;;1.67;;
46363;SDS011;32071;49.036;9.344;2023-09-19T10:30:21;1.80;;;1.70;;
46363;SDS011;32071;49.036;9.344;2023-09-19T10:32:49;1.90;;;1.60;;
46363;SDS011;32071;49.036;9.344;2023-09-19T10:35:25;2.20;;;1.30;;
46363;SDS011;32071;49.036;9.344;2023-09-19T10:37:51;1.73;;;1.50;;
46363;SDS011;32071;49.036;9.344;2023-09-19T10:40:19;2.27;;;1.80;;
46363;SDS011;32071;49.036;9.344;2023-09-19T10:42:47;4.10;;;1.63;;
46363;SDS011;32071;49.036;9.344;2023-09-19T10:45:15;1.90;;;1.70;;
46363;SDS011;32071;49.036;9.344;2023-09-19T10:47:42;3.50;;;1.87;;
46363;SDS011;32071;49.036;9.344;2023-09-19T10:50:08;3.23;;;2.00;;
46363;SDS011;32071;49.036;9.344;2023-09-19T10:52:37;7.03;;;2.03;;
46363;SDS011;32071;49.036;9.344;2023-09-19T10:55:06;2.50;;;2.30;;
46363;SDS011;32071;49.036;9.344;2023-09-19T10:57:34;5.00;;;2.20;;
46363;SDS011;32071;49.036;9.344;2023-09-19T11:00:03;2.17;;;1.70;;
46363;SDS011;32071;49.036;9.344;2023-09-19T11:06:00;2.60;;;1.70;;
46363;SDS011;32071;49.036;9.344;2023-09-19T11:28:27;5.67;;;2.20;;
46363;SDS011;32071;49.036;9.344;2023-09-19T11:30:48;1.70;;;1.60;;
46363;SDS011;32071;49.036;9.344;2023-09-19T11:33:24;5.37;;;2.27;;
46363;SDS011;32071;49.036;9.344;2023-09-19T11:46:35;11.77;;;2.10;;
46363;SDS011;32071;49.036;9.344;2023-09-19T11:49:17;2.20;;;1.80;;
46363;SDS011;32071;49.036;9.344;2023-09-19T11:51:48;1.90;;;1.70;;
46363;SDS011;32071;49.036;9.344;2023-09-19T11:54:17;2.17;;;1.83;;
46363;SDS011;32071;49.036;9.344;2023-09-19T11:56:44;4.23;;;1.80;;
46363;SDS011;32071;49.036;9.344;2023-09-19T11:59:11;2.10;;;1.87;;
46363;SDS011;32071;49.036;9.344;2023-09-19T12:01:50;2.30;;;1.70;;
46363;SDS011;32071;49.036;9.344;2023-09-19T12:04:36;4.70;;;2.07;;
46363;SDS011;32071;49.036;9.344;2023-09-19T12:07:09;3.03;;;2.27;;
46363;SDS011;32071;49.036;9.344;2023-09-19T12:09:40;1.73;;;1.63;;
46363;SDS011;32071;49.036;9.344;2023-09-19T12:12:25;2.90;;;2.13;;
46363;SDS011;32071;49.036;9.344;2023-09-19T12:14:52;1.60;;;1.50;;
46363;SDS011;32071;49.036;9.344;2023-09-19T12:17:19;2.13;;;1.90;;
46363;SDS011;32071;49.036;9.344;2023-09-19T12:19:52;2.07;;;1.90;;
46363;SDS011;32071;49.036;9.344;2023-09-19T12:22:18;2.07;;;1.73;;
46363;SDS011;32071;49.036;9.344;2023-09-19T12:24:45;2.40;;;1.80;;
46363;SDS011;32071;49.036;9.344;2023-09-19T12:27:12;1.83;;;1.73;;
46363;SDS011;32071;49.036;9.344;2023-09-19T12:29:45;4.07;;;1.80;;
46363;SDS011;32071;49.036;9.344;2023-09-19T12:32:14;2.60;;;1.70;;
46363;SDS011;32071;49.036;9.344;2023-09-19T12:34:42;2.10;;;1.77;;
46363;SDS011;32071;49.036;9.344;2023-09-19T12:37:15;1.53;;;1.43;;
46363;SDS011;32071;49.036;9.344;2023-09-19T12:39:45;3.37;;;2.00;;
46363;SDS011;32071;49.036;9.344;2023-09-19T12:42:14;2.30;;;2.10;;
46363;SDS011;32071;49.036;9.344;2023-09-19T12:44:41;1.80;;;1.40;;
46363;SDS011;32071;49.036;9.344;2023-09-19T12:47:15;1.93;;;1.83;;
46363;SDS011;32071;49.036;9.344;2023-09-19T12:52:43;3.20;;;1.97;;
46363;SDS011;32071;49.036;9.344;2023-09-19T12:55:20;4.70;;;2.07;;
46363;SDS011;32071;49.036;9.344;2023-09-19T12:57:55;5.73;;;2.40;;
46363;SDS011;32071;49.036;9.344;2023-09-19T13:00:21;2.03;;;1.70;;
46363;SDS011;32071;49.036;9.344;2023-09-19T13:03:12;2.40;;;2.00;;
46363;SDS011;32071;49.036;9.344;2023-09-19T13:05:52;2.13;;;1.80;;
46363;SDS011;32071;49.036;9.344;2023-09-19T13:08:21;2.13;;;2.00;;
46363;SDS011;32071;49.036;9.344;2023-09-19T13:13:46;1.67;;;1.57;;
46363;SDS011;32071;49.036;9.344;2023-09-19T13:16:18;2.43;;;1.77;;
46363;SDS011;32071;49.036;9.344;2023-09-19T13:18:48;1.70;;;1.60;;
46363;SDS011;32071;49.036;9.344;2023-09-19T13:21:35;1.90;;;1.80;;
46363;SDS011;32071;49.036;9.344;2023-09-19T13:24:23;2.03;;;1.83;;
46363;SDS011;32071;49.036;9.344;2023-09-19T13:26:53;3.23;;;1.90;;
46363;SDS011;32071;49.036;9.344;2023-09-19T13:29:18;2.00;;;1.90;;
46363;SDS011;32071;49.036;9.344;2023-09-19T13:31:48;4.30;;;1.93;;
46363;SDS011;32071;49.036;9.344;2023-09-19T13:34:19;2.40;;;1.90;;
46363;SDS011;32071;49.036;9.344;2023-09-19T13:36:46;3.87;;;2.23;;
46363;SDS011;32071;49.036;9.344;2023-09-19T13:39:13;1.80;;;1.50;;
46363;SDS011;32071;49.036;9.344;2023-09-19T13:41:41;2.13;;;1.93;;
46363;SDS011;32071;49.036;9.344;2023-09-19T13:44:08;2.13;;;1.90;;
46363;SDS011;32071;49.036;9.344;2023-09-19T13:46:35;3.37;;;2.13;;
46363;SDS011;32071;49.036;9.344;2023-09-19T13:49:02;3.50;;;2.10;;
46363;SDS011;32071;49.036;9.344;2023-09-19T13:51:30;1.90;;;1.50;;
46363;SDS011;32071;49.036;9.344;2023-09-19T13:53:56;5.10;;;2.03;;
46363;SDS011;32071;49.036;9.344;2023-09-19T13:56:22;1.87;;;1.77;;
46363;SDS011;32071;49.036;9.344;2023-09-19T13:58:47;3.30;;;1.90;;
46363;SDS011;32071;49.036;9.344;2023-09-19T14:01:13;2.30;;;1.93;;
46363;SDS011;32071;49.036;9.344;2023-09-19T14:03:39;5.20;;;2.53;;
46363;SDS011;32071;49.036;9.344;2023-09-19T14:06:05;2.23;;;1.97;;
46363;SDS011;32071;49.036;9.344;2023-09-19T14:08:31;2.60;;;1.90;;
46363;SDS011;32071;49.036;9.344;2023-09-19T14:10:59;4.10;;;2.07;;
46363;SDS011;32071;49.036;9.344;2023-09-19T14:13:30;3.67;;;1.90;;
46363;SDS011;32071;49.036;9.344;2023-09-19T14:15:56;2.20;;;2.00;;
46363;SDS011;32071;49.036;9.344;2023-09-19T14:18:21;1.50;;;1.40;;
46363;SDS011;32071;49.036;9.344;2023-09-19T14:20:47;2.97;;;1.70;;
46363;SDS011;32071;49.036;9.344;2023-09-19T14:23:12;2.60;;;1.73;;
46363;SDS011;32071;49.036;9.344;2023-09-19T14:25:38;1.93;;;1.73;;
46363;SDS011;32071;49.036;9.344;2023-09-19T14:28:04;1.97;;;1.87;;
46363;SDS011;32071;49.036;9.344;2023-09-19T14:30:32;2.17;;;1.83;;
46363;SDS011;32071;49.036;9.344;2023-09-19T14:32:58;1.83;;;1.73;;
46363;SDS011;32071;49.036;9.344;2023-09-19T14:35:24;3.20;;;1.70;;
46363;SDS011;32071;49.036;9.344;2023-09-19T14:37:50;2.73;;;2.00;;
46363;SDS011;32071;49.036;9.344;2023-09-19T14:40:15;1.97;;;1.80;;
46363;SDS011;32071;49.036;9.344;2023-09-19T14:42:42;2.10;;;2.00;;
46363;SDS011;32071;49.036;9.344;2023-09-19T14:45:10;5.37;;;2.47;;
46363;SDS011;32071;49.036;9.344;2023-09-19T14:47:36;2.43;;;1.97;;
46363;SDS011;32071;49.036;9.344;2023-09-19T14:50:03;1.57;;;1.47;;
46363;SDS011;32071;49.036;9.344;2023-09-19T14:52:34;3.53;;;1.63;;
46363;SDS011;32071;49.036;9.344;2023-09-19T14:55:01;1.90;;;1.80;;
46363;SDS011;32071;49.036;9.344;2023-09-19T14:57:27;1.80;;;1.70;;
46363;SDS011;32071;49.036;9.344;2023-09-19T14:59:52;1.93;;;1.83;;
46363;SDS011;32071;49.036;9.344;2023-09-19T15:02:18;2.90;;;1.80;;
46363;SDS011;32071;49.036;9.344;2023-09-19T15:04:44;2.83;;;1.70;;
46363;SDS011;32071;49.036;9.344;2023-09-19T15:07:11;1.70;;;1.60;;
46363;SDS011;32071;49.036;9.344;2023-09-19T15:09:41;2.40;;;2.00;;
46363;SDS011;32071;49.036;9.344;2023-09-19T15:12:06;1.87;;;1.63;;
46363;SDS011;32071;49.036;9.344;2023-09-19T15:14:32;2.20;;;2.00;;
46363;SDS011;32071;49.036;9.344;2023-09-19T15:16:58;1.93;;;1.77;;
46363;SDS011;32071;49.036;9.344;2023-09-19T15:19:23;1.63;;;1.53;;
46363;SDS011;32071;49.036;9.344;2023-09-19T15:21:49;1.83;;;1.73;;
46363;SDS011;32071;49.036;9.344;2023-09-19T15:24:14;1.83;;;1.73;;
46363;SDS011;32071;49.036;9.344;2023-09-19T15:26:41;1.90;;;1.80;;
46363;SDS011;32071;49.036;9.344;2023-09-19T15:29:09;2.77;;;1.60;;
46363;SDS011;32071;49.036;9.344;2023-09-19T15:31:35;1.50;;;1.40;;
46363;SDS011;32071;49.036;9.344;2023-09-19T15:34:04;1.80;;;1.70;;
46363;SDS011;32071;49.036;9.344;2023-09-19T15:36:32;1.90;;;1.80;;
46363;SDS011;32071;49.036;9.344;2023-09-19T15:41:39;2.07;;;1.70;;
46363;SDS011;32071;49.036;9.344;2023-09-19T15:44:13;3.73;;;1.70;;
46363;SDS011;32071;49.036;9.344;2023-09-19T15:46:40;3.17;;;1.97;;
46363;SDS011;32071;49.036;9.344;2023-09-19T15:49:06;2.03;;;1.80;;
46363;SDS011;32071;49.036;9.344;2023-09-19T15:51:32;1.80;;;1.70;;
46363;SDS011;32071;49.036;9.344;2023-09-19T15:53:58;1.83;;;1.73;;
46363;SDS011;32071;49.036;9.344;2023-09-19T15:56:25;2.07;;;1.87;;
46363;SDS011;32071;49.036;9.344;2023-09-19T15:58:52;2.50;;;1.97;;
46363;SDS011;32071;49.036;9.344;2023-09-19T16:01:19;1.60;;;1.50;;
46363;SDS011;32071;49.036;9.344;2023-09-19T16:03:46;3.70;;;1.40;;
46363;SDS011;32071;49.036;9.344;2023-09-19T16:06:14;3.70;;;1.97;;
46363;SDS011;32071;49.036;9.344;2023-09-19T16:08:45;2.67;;;1.90;;
46363;SDS011;32071;49.036;9.344;2023-09-19T16:11:12;1.63;;;1.43;;